createdAt,value
2023-04-26T00:00:09.350Z,1.13
2023-04-26T00:02:38.256Z,1.60
2023-04-26T00:05:09.794Z,1.63
2023-04-26T00:07:39.222Z,1.60
2023-04-26T00:10:08.439Z,1.33
2023-04-26T00:12:37.490Z,1.27
2023-04-26T00:15:07.520Z,1.33
2023-04-26T00:17:36.374Z,1.00
2023-04-26T00:20:08.509Z,1.80
2023-04-26T00:22:38.573Z,1.30
2023-04-26T00:25:07.757Z,1.73
2023-04-26T00:27:36.336Z,1.57
2023-04-26T00:30:05.440Z,1.47
2023-04-26T00:32:35.405Z,1.17
2023-04-26T00:35:05.460Z,1.50
2023-04-26T00:37:34.064Z,1.53
2023-04-26T00:40:04.121Z,1.40
2023-04-26T00:42:32.697Z,1.20
2023-04-26T00:45:01.363Z,1.50
2023-04-26T00:47:30.504Z,1.23
2023-04-26T00:49:59.163Z,1.27
2023-04-26T00:52:27.822Z,1.80
2023-04-26T00:54:56.882Z,1.80
2023-04-26T00:57:27.148Z,1.47
2023-04-26T00:59:56.342Z,1.43
2023-04-26T01:02:25.084Z,2.30
2023-04-26T01:04:54.322Z,1.70
2023-04-26T01:07:22.900Z,1.87
2023-04-26T01:09:51.547Z,1.77
2023-04-26T01:12:20.151Z,1.80
2023-04-26T01:14:50.132Z,1.23
2023-04-26T01:17:20.102Z,1.20
2023-04-26T01:19:49.194Z,1.67
2023-04-26T01:22:17.806Z,1.87
2023-04-26T01:24:49.989Z,2.27
2023-04-26T01:27:18.628Z,1.70
2023-04-26T01:29:47.640Z,1.30
2023-04-26T01:32:16.889Z,1.60
2023-04-26T01:34:45.530Z,1.73
2023-04-26T01:37:14.142Z,2.00
2023-04-26T01:39:42.708Z,1.30
2023-04-26T01:42:12.698Z,1.53
2023-04-26T01:44:41.345Z,1.67
2023-04-26T01:47:09.955Z,1.40
2023-04-26T01:49:38.497Z,1.50
2023-04-26T01:52:07.053Z,1.80
2023-04-26T01:54:35.716Z,1.70
2023-04-26T01:57:04.403Z,2.17
2023-04-26T01:59:34.424Z,2.00
2023-04-26T02:02:03.162Z,1.60
2023-04-26T02:04:31.817Z,2.30
2023-04-26T02:07:00.412Z,2.03
2023-04-26T02:09:28.970Z,1.90
2023-04-26T02:11:57.527Z,2.85
2023-04-26T02:14:26.670Z,2.37
2023-04-26T02:16:57.106Z,2.27
2023-04-26T02:19:25.898Z,2.00
2023-04-26T02:21:57.173Z,1.93
2023-04-26T02:24:25.918Z,1.63
2023-04-26T02:26:55.162Z,2.27
2023-04-26T02:29:40.003Z,2.70
2023-04-26T02:32:13.369Z,2.17
2023-04-26T02:34:42.066Z,2.00
2023-04-26T02:37:10.650Z,1.50
2023-04-26T02:39:39.249Z,1.40
2023-04-26T02:42:10.628Z,1.40
2023-04-26T02:44:40.070Z,2.33
2023-04-26T02:47:08.929Z,1.97
2023-04-26T02:49:38.930Z,1.20
2023-04-26T02:52:07.585Z,1.73
2023-04-26T02:54:36.278Z,2.13
2023-04-26T02:57:05.166Z,1.47
2023-04-26T02:59:33.772Z,1.70
2023-04-26T03:02:02.328Z,1.80
2023-04-26T03:04:33.895Z,1.87
2023-04-26T03:07:04.002Z,2.00
2023-04-26T03:09:34.927Z,2.03
2023-04-26T03:12:03.647Z,2.63
2023-04-26T03:14:33.448Z,1.65
2023-04-26T03:17:02.116Z,2.00
2023-04-26T03:19:30.760Z,2.10
2023-04-26T03:21:59.375Z,1.70
2023-04-26T03:24:29.377Z,1.60
2023-04-26T03:26:57.949Z,1.60
2023-04-26T03:29:26.988Z,1.40
2023-04-26T03:31:55.698Z,1.40
2023-04-26T03:34:24.397Z,2.17
2023-04-26T03:36:53.017Z,1.67
2023-04-26T03:39:21.938Z,1.60
2023-04-26T03:41:52.208Z,1.53
2023-04-26T03:44:21.103Z,1.20
2023-04-26T03:46:49.664Z,2.28
2023-04-26T03:49:18.279Z,1.77
2023-04-26T03:51:46.897Z,1.83
2023-04-26T03:54:15.758Z,1.60
2023-04-26T03:56:44.716Z,1.83
2023-04-26T03:59:14.756Z,1.73
2023-04-26T04:01:43.427Z,2.50
2023-04-26T04:04:12.303Z,2.08
2023-04-26T04:06:41.025Z,2.22
2023-04-26T04:09:09.651Z,1.67
2023-04-26T04:11:38.227Z,2.17
2023-04-26T04:14:07.336Z,2.15
2023-04-26T04:16:37.288Z,2.33
2023-04-26T04:19:06.246Z,1.33
2023-04-26T04:21:35.024Z,2.50
2023-04-26T04:24:03.977Z,2.00
2023-04-26T04:26:32.533Z,1.60
2023-04-26T04:29:08.681Z,2.50
2023-04-26T04:31:40.018Z,2.05
2023-04-26T04:34:08.821Z,1.97
2023-04-26T04:36:38.738Z,2.58
2023-04-26T04:39:13.647Z,1.93
2023-04-26T04:41:47.651Z,1.47
2023-04-26T04:44:16.900Z,1.93
2023-04-26T04:46:47.478Z,1.97
2023-04-26T04:49:16.182Z,1.50
2023-04-26T04:51:44.779Z,1.90
2023-04-26T04:54:13.725Z,2.43
2023-04-26T04:56:42.647Z,1.80
2023-04-26T04:59:11.377Z,2.10
2023-04-26T05:01:39.957Z,1.80
2023-04-26T05:04:10.105Z,2.27
2023-04-26T05:06:38.866Z,2.13
2023-04-26T05:09:07.470Z,2.00
2023-04-26T05:11:36.175Z,2.10
2023-04-26T05:14:04.808Z,1.83
2023-04-26T05:16:33.467Z,2.23
2023-04-26T05:19:02.096Z,2.27
2023-04-26T05:21:32.613Z,2.50
2023-04-26T05:24:01.232Z,2.10
2023-04-26T05:26:30.297Z,2.50
2023-04-26T05:28:58.920Z,2.60
2023-04-26T05:31:27.658Z,2.00
2023-04-26T05:33:56.727Z,1.93
2023-04-26T05:36:26.415Z,1.53
2023-04-26T05:38:57.466Z,2.40
2023-04-26T05:41:26.138Z,2.70
2023-04-26T05:43:54.893Z,2.70
2023-04-26T05:46:23.904Z,2.17
2023-04-26T05:48:52.531Z,1.87
2023-04-26T05:51:21.706Z,1.63
2023-04-26T05:53:51.178Z,1.93
2023-04-26T05:56:21.306Z,1.70
2023-04-26T05:58:49.849Z,1.83
2023-04-26T06:01:18.495Z,1.50
2023-04-26T06:03:47.313Z,1.70
2023-04-26T06:06:16.062Z,2.53
2023-04-26T06:08:44.721Z,1.87
2023-04-26T06:11:13.367Z,1.63
2023-04-26T06:13:43.292Z,2.30
2023-04-26T06:16:11.940Z,2.07
2023-04-26T06:18:40.594Z,2.23
2023-04-26T06:21:09.256Z,2.77
2023-04-26T06:23:37.910Z,2.23
2023-04-26T06:26:06.637Z,2.50
2023-04-26T06:28:35.329Z,1.80
2023-04-26T06:31:05.514Z,1.90
2023-04-26T06:33:34.285Z,2.10
2023-04-26T06:36:02.970Z,2.43
2023-04-26T06:38:31.602Z,1.70
2023-04-26T06:41:00.852Z,1.73
2023-04-26T06:43:29.638Z,2.23
2023-04-26T06:45:58.419Z,1.97
2023-04-26T06:48:29.054Z,2.20
2023-04-26T06:50:57.695Z,1.67
2023-04-26T06:53:26.429Z,2.47
2023-04-26T06:55:57.437Z,1.53
2023-04-26T06:58:26.442Z,1.63
2023-04-26T07:00:55.158Z,1.67
2023-04-26T07:03:23.971Z,2.10
2023-04-26T07:05:54.110Z,2.40
2023-04-26T07:08:22.731Z,1.80
2023-04-26T07:10:54.824Z,2.30
2023-04-26T07:13:23.504Z,1.63
2023-04-26T07:15:52.221Z,2.80
2023-04-26T07:18:20.865Z,2.10
2023-04-26T07:20:49.926Z,3.07
2023-04-26T07:23:23.766Z,1.87
2023-04-26T07:25:54.830Z,2.40
2023-04-26T07:28:25.090Z,2.67
2023-04-26T07:30:54.521Z,2.30
2023-04-26T07:33:25.349Z,1.90
2023-04-26T07:35:59.483Z,1.50
2023-04-26T07:38:30.268Z,1.50
2023-04-26T07:40:58.879Z,1.63
2023-04-26T07:43:28.376Z,1.40
2023-04-26T07:45:57.123Z,1.60
2023-04-26T07:48:25.926Z,1.57
2023-04-26T07:50:55.578Z,1.97
2023-04-26T07:53:24.284Z,1.77
2023-04-26T07:55:54.728Z,1.90
2023-04-26T07:58:23.385Z,1.50
2023-04-26T08:00:52.266Z,1.70
2023-04-26T08:03:21.123Z,2.13
2023-04-26T08:05:50.212Z,2.10
2023-04-26T08:08:19.003Z,2.20
2023-04-26T08:10:47.650Z,1.70
2023-04-26T08:13:17.622Z,1.40
2023-04-26T08:15:46.289Z,1.67
2023-04-26T08:18:14.950Z,1.27
2023-04-26T08:20:43.572Z,1.90
2023-04-26T08:23:12.639Z,1.43
2023-04-26T08:25:41.222Z,2.20
2023-04-26T08:28:09.877Z,1.90
2023-04-26T08:30:39.932Z,1.50
2023-04-26T08:33:08.801Z,1.80
2023-04-26T08:35:37.405Z,1.67
2023-04-26T08:38:05.963Z,1.50
2023-04-26T08:40:35.036Z,1.50
2023-04-26T08:43:03.546Z,2.10
2023-04-26T08:45:32.152Z,1.93
2023-04-26T08:48:04.858Z,1.83
2023-04-26T08:50:33.801Z,1.90
2023-04-26T08:53:02.394Z,2.20
2023-04-26T08:55:31.450Z,2.13
2023-04-26T08:58:00.083Z,1.60
2023-04-26T09:00:28.804Z,2.60
2023-04-26T09:02:57.732Z,1.83
2023-04-26T09:05:27.980Z,2.20
2023-04-26T09:07:58.934Z,2.97
2023-04-26T09:10:28.144Z,1.83
2023-04-26T09:12:56.785Z,2.73
2023-04-26T09:15:26.570Z,1.43
2023-04-26T09:17:55.354Z,1.30
2023-04-26T09:20:27.558Z,1.40
2023-04-26T09:23:04.906Z,1.57
2023-04-26T09:25:33.733Z,1.40
2023-04-26T09:28:02.532Z,1.43
2023-04-26T09:30:31.444Z,1.60
2023-04-26T09:33:04.546Z,1.10
2023-04-26T09:35:35.446Z,1.37
2023-04-26T09:38:11.795Z,1.50
2023-04-26T09:40:42.692Z,1.07
2023-04-26T09:43:12.709Z,1.23
2023-04-26T09:45:51.448Z,1.10
2023-04-26T09:48:22.452Z,1.57
2023-04-26T09:50:54.087Z,1.50
2023-04-26T09:53:30.914Z,1.70
2023-04-26T09:56:06.975Z,1.40
2023-04-26T09:58:36.228Z,1.57
2023-04-26T10:01:05.088Z,1.50
2023-04-26T10:03:35.219Z,1.07
2023-04-26T10:06:05.767Z,0.90
2023-04-26T10:08:34.426Z,1.27
2023-04-26T10:11:04.946Z,1.23
2023-04-26T10:13:33.991Z,1.40
2023-04-26T10:16:02.879Z,1.10
2023-04-26T10:18:32.134Z,1.43
2023-04-26T10:21:01.701Z,1.90
2023-04-26T10:23:31.965Z,1.30
2023-04-26T10:26:00.665Z,1.30
2023-04-26T10:29:01.472Z,1.70
2023-04-26T10:32:05.238Z,1.63
2023-04-26T10:34:34.455Z,1.23
2023-04-26T10:37:09.979Z,1.47
2023-04-26T10:39:40.222Z,1.60
2023-04-26T10:42:25.537Z,1.43
2023-04-26T10:44:55.166Z,1.70
2023-04-26T10:47:33.528Z,1.30
2023-04-26T10:50:09.814Z,1.47
2023-04-26T10:52:38.943Z,1.20
2023-04-26T10:55:10.280Z,1.17
2023-04-26T10:57:59.964Z,1.27
2023-04-26T11:00:33.193Z,1.67
2023-04-26T11:03:09.508Z,1.60
2023-04-26T11:05:55.413Z,1.40
2023-04-26T11:08:27.625Z,1.47
2023-04-26T11:11:09.661Z,1.40
2023-04-26T11:13:38.782Z,1.63
2023-04-26T11:16:08.179Z,2.00
2023-04-26T11:18:37.650Z,1.50
2023-04-26T11:21:07.008Z,1.43
2023-04-26T11:23:35.767Z,1.87
2023-04-26T11:26:06.791Z,1.83
2023-04-26T11:28:36.172Z,1.23
2023-04-26T11:31:05.149Z,1.50
2023-04-26T11:33:35.117Z,1.70
2023-04-26T11:36:04.054Z,1.83
2023-04-26T11:38:32.685Z,1.80
2023-04-26T11:41:01.984Z,2.00
2023-04-26T11:43:38.625Z,1.80
2023-04-26T11:46:08.131Z,1.70
2023-04-26T11:48:38.135Z,2.03
2023-04-26T11:51:07.839Z,1.90
2023-04-26T11:53:40.448Z,1.50
2023-04-26T11:56:18.915Z,1.87
2023-04-26T11:58:49.425Z,1.43
2023-04-26T12:01:24.649Z,1.83
2023-04-26T12:03:54.401Z,1.90
2023-04-26T12:06:27.089Z,1.83
2023-04-26T12:08:56.113Z,2.57
2023-04-26T12:11:24.724Z,2.17
2023-04-26T12:13:54.732Z,1.77
2023-04-26T12:16:26.702Z,2.67
2023-04-26T12:18:56.868Z,1.80
2023-04-26T12:21:28.161Z,2.30
2023-04-26T12:23:57.748Z,1.97
2023-04-26T12:26:42.961Z,1.77
2023-04-26T12:29:12.962Z,2.10
2023-04-26T12:31:41.803Z,2.30
2023-04-26T12:34:10.471Z,2.20
2023-04-26T12:36:40.100Z,2.00
2023-04-26T12:39:08.731Z,2.03
2023-04-26T12:41:37.574Z,2.43
2023-04-26T12:44:06.383Z,2.20
2023-04-26T12:46:36.632Z,2.30
2023-04-26T12:49:05.493Z,2.83
2023-04-26T12:51:34.552Z,2.10
2023-04-26T12:54:03.156Z,2.00
2023-04-26T12:56:39.823Z,2.70
2023-04-26T12:59:08.527Z,2.10
2023-04-26T13:01:38.575Z,2.03
2023-04-26T13:04:07.533Z,2.20
2023-04-26T13:06:36.462Z,2.40
2023-04-26T13:09:07.829Z,2.40
2023-04-26T13:11:36.474Z,2.00
2023-04-26T13:14:06.868Z,1.63
2023-04-26T13:16:38.791Z,2.27
2023-04-26T13:19:07.474Z,1.47
2023-04-26T13:21:36.165Z,1.90
2023-04-26T13:24:05.092Z,2.07
2023-04-26T13:26:33.682Z,2.70
2023-04-26T13:29:02.856Z,2.20
2023-04-26T13:31:32.087Z,2.37
2023-04-26T13:34:03.072Z,2.13
2023-04-26T13:36:32.135Z,2.33
2023-04-26T13:39:00.820Z,2.00
2023-04-26T13:41:33.355Z,1.50
2023-04-26T13:44:01.965Z,1.83
2023-04-26T13:46:30.683Z,1.90
2023-04-26T13:48:59.403Z,2.00
2023-04-26T13:51:30.740Z,1.87
2023-04-26T13:53:59.364Z,2.03
2023-04-26T13:56:28.086Z,2.17
2023-04-26T13:58:57.397Z,1.90
2023-04-26T14:01:26.299Z,2.33
2023-04-26T14:03:56.118Z,1.90
2023-04-26T14:06:25.082Z,2.23
2023-04-26T14:08:55.102Z,1.93
2023-04-26T14:11:24.379Z,2.40
2023-04-26T14:13:55.970Z,2.13
2023-04-26T14:16:24.841Z,2.90
2023-04-26T14:18:53.613Z,2.10
2023-04-26T14:21:22.222Z,2.00
2023-04-26T14:23:50.948Z,2.03
2023-04-26T14:26:21.574Z,1.90
2023-04-26T14:28:50.740Z,1.93
2023-04-26T14:31:19.833Z,2.00
2023-04-26T14:33:48.575Z,2.50
2023-04-26T14:36:17.230Z,2.40
2023-04-26T14:38:45.994Z,1.90
2023-04-26T14:41:17.405Z,1.90
2023-04-26T14:43:47.392Z,2.33
2023-04-26T14:46:16.071Z,2.13
2023-04-26T14:48:45.043Z,1.73
2023-04-26T14:51:14.056Z,2.03
2023-04-26T14:53:42.664Z,1.70
2023-04-26T14:56:11.266Z,2.00
2023-04-26T14:58:39.872Z,1.70
2023-04-26T15:01:10.470Z,2.47
2023-04-26T15:03:39.528Z,1.60
2023-04-26T15:06:09.529Z,1.90
2023-04-26T15:08:44.696Z,2.60
2023-04-26T15:11:13.484Z,1.83
2023-04-26T15:13:42.188Z,2.20
2023-04-26T15:16:12.335Z,2.40
2023-04-26T15:18:40.948Z,1.80
2023-04-26T15:21:09.579Z,1.97
2023-04-26T15:23:38.313Z,2.53
2023-04-26T15:26:07.067Z,1.70
2023-04-26T15:28:35.688Z,1.90
2023-04-26T15:31:04.618Z,2.10
2023-04-26T15:33:34.613Z,1.80
2023-04-26T15:36:03.244Z,2.00
2023-04-26T15:38:32.005Z,1.57
2023-04-26T15:41:00.593Z,2.93
2023-04-26T15:43:29.295Z,1.90
2023-04-26T15:45:57.943Z,2.77
2023-04-26T15:48:27.079Z,2.00
2023-04-26T15:50:57.924Z,1.97
2023-04-26T15:53:26.940Z,2.03
2023-04-26T15:55:55.584Z,2.50
2023-04-26T15:58:24.189Z,2.10
2023-04-26T16:00:53.095Z,2.10
2023-04-26T16:03:22.023Z,2.53
2023-04-26T16:05:50.920Z,1.93
2023-04-26T16:08:39.123Z,2.40
2023-04-26T16:11:09.163Z,2.10
2023-04-26T16:13:37.760Z,1.90
2023-04-26T16:16:08.992Z,2.27
2023-04-26T16:18:39.532Z,1.77
2023-04-26T16:21:09.493Z,1.80
2023-04-26T16:23:39.578Z,1.80
2023-04-26T16:26:08.197Z,1.83
2023-04-26T16:28:36.840Z,1.60
2023-04-26T16:31:06.239Z,1.47
2023-04-26T16:33:34.951Z,2.10
2023-04-26T16:36:03.636Z,1.70
2023-04-26T16:38:32.284Z,2.33
2023-04-26T16:41:02.446Z,1.73
2023-04-26T16:43:31.665Z,1.97
2023-04-26T16:46:01.368Z,1.80
2023-04-26T16:48:30.181Z,2.13
2023-04-26T16:50:58.796Z,1.70
2023-04-26T16:53:27.486Z,1.83
2023-04-26T16:55:56.117Z,1.90
2023-04-26T16:58:26.189Z,2.80
2023-04-26T17:00:54.887Z,1.77
2023-04-26T17:03:23.917Z,2.50
2023-04-26T17:05:52.781Z,1.50
2023-04-26T17:08:21.965Z,2.03
2023-04-26T17:10:51.774Z,3.73
2023-04-26T17:13:21.054Z,4.77
2023-04-26T17:15:51.493Z,2.90
2023-04-26T17:18:20.386Z,18.43
2023-04-26T17:20:52.978Z,5.07
2023-04-26T17:23:22.244Z,1.93
2023-04-26T17:25:53.263Z,2.33
2023-04-26T17:28:23.191Z,2.53
2023-04-26T17:30:53.158Z,1.93
2023-04-26T17:33:21.901Z,2.23
2023-04-26T17:35:50.552Z,1.63
2023-04-26T17:38:19.489Z,2.13
2023-04-26T17:40:52.165Z,1.63
2023-04-26T17:43:21.261Z,1.53
2023-04-26T17:45:50.033Z,1.20
2023-04-26T17:48:20.199Z,1.40
2023-04-26T17:50:48.922Z,1.57
2023-04-26T17:53:17.607Z,1.63
2023-04-26T17:55:46.249Z,2.00
2023-04-26T17:58:14.913Z,1.93
2023-04-26T18:00:43.485Z,1.60
2023-04-26T18:03:13.724Z,1.40
2023-04-26T18:05:43.870Z,1.47
2023-04-26T18:08:13.614Z,1.70
2023-04-26T18:10:42.213Z,2.40
2023-04-26T18:13:11.933Z,3.50
2023-04-26T18:15:40.617Z,3.07
2023-04-26T18:18:09.284Z,4.50
2023-04-26T18:20:38.048Z,2.73
2023-04-26T18:23:07.962Z,1.83
2023-04-26T18:25:36.587Z,1.97
2023-04-26T18:28:05.553Z,2.27
2023-04-26T18:30:34.139Z,1.63
2023-04-26T18:33:02.781Z,1.57
2023-04-26T18:35:31.510Z,2.33
2023-04-26T18:38:00.094Z,2.27
2023-04-26T18:40:30.063Z,1.93
2023-04-26T18:42:58.846Z,3.43
2023-04-26T18:45:27.477Z,1.80
2023-04-26T18:47:56.274Z,1.83
2023-04-26T18:50:24.895Z,2.57
2023-04-26T18:52:53.421Z,2.70
2023-04-26T18:55:21.997Z,1.90
2023-04-26T18:57:51.998Z,1.53
2023-04-26T19:00:21.128Z,1.90
2023-04-26T19:02:51.111Z,3.43
2023-04-26T19:05:20.021Z,2.93
2023-04-26T19:07:49.998Z,2.30
2023-04-26T19:10:18.647Z,3.10
2023-04-26T19:12:47.278Z,3.13
2023-04-26T19:15:17.415Z,3.70
2023-04-26T19:17:46.615Z,3.90
2023-04-26T19:20:15.428Z,3.23
2023-04-26T19:22:45.254Z,3.93
2023-04-26T19:25:13.952Z,3.70
2023-04-26T19:27:42.584Z,2.80
2023-04-26T19:30:12.204Z,2.63
2023-04-26T19:32:42.208Z,2.70
2023-04-26T19:35:11.069Z,3.90
2023-04-26T19:37:39.701Z,3.07
2023-04-26T19:40:10.093Z,2.90
2023-04-26T19:42:38.700Z,3.20
2023-04-26T19:45:08.552Z,3.30
2023-04-26T19:47:37.224Z,3.23
2023-04-26T19:50:08.095Z,3.00
2023-04-26T19:52:36.713Z,4.87
2023-04-26T19:55:05.703Z,3.43
2023-04-26T19:57:34.566Z,3.70
2023-04-26T20:00:03.302Z,3.40
2023-04-26T20:02:32.289Z,4.80
2023-04-26T20:05:01.003Z,5.00
2023-04-26T20:07:31.619Z,4.27
2023-04-26T20:10:00.171Z,4.97
2023-04-26T20:12:28.793Z,4.63
2023-04-26T20:14:57.408Z,3.97
2023-04-26T20:17:26.037Z,4.70
2023-04-26T20:19:54.744Z,3.97
2023-04-26T20:22:23.295Z,4.50
2023-04-26T20:24:53.361Z,4.13
2023-04-26T20:27:21.940Z,4.97
2023-04-26T20:29:50.619Z,4.00
2023-04-26T20:32:19.200Z,4.60
2023-04-26T20:34:47.872Z,3.70
2023-04-26T20:37:16.436Z,3.57
2023-04-26T20:39:45.375Z,3.50
2023-04-26T20:42:15.578Z,4.20
2023-04-26T20:44:44.269Z,4.03
2023-04-26T20:47:13.162Z,3.97
2023-04-26T20:49:41.778Z,4.10
2023-04-26T20:52:10.528Z,3.47
2023-04-26T20:54:39.157Z,4.17
2023-04-26T20:57:07.797Z,2.90
2023-04-26T20:59:37.752Z,3.60
2023-04-26T21:02:07.738Z,3.80
2023-04-26T21:04:38.685Z,3.80
2023-04-26T21:07:07.665Z,3.00
2023-04-26T21:09:36.530Z,3.47
2023-04-26T21:12:05.534Z,3.13
2023-04-26T21:14:34.118Z,3.23
2023-04-26T21:17:05.558Z,2.83
2023-04-26T21:19:34.155Z,4.20
2023-04-26T21:22:02.896Z,3.70
2023-04-26T21:24:31.719Z,4.50
2023-04-26T21:27:00.253Z,4.30
2023-04-26T21:29:28.836Z,5.63
2023-04-26T21:31:57.403Z,4.07
2023-04-26T21:34:27.346Z,4.80
2023-04-26T21:36:55.890Z,5.27
2023-04-26T21:39:24.756Z,5.40
2023-04-26T21:41:53.304Z,5.30
2023-04-26T21:44:22.115Z,6.47
2023-04-26T21:46:50.834Z,4.90
2023-04-26T21:49:19.429Z,5.90
2023-04-26T21:51:49.416Z,5.63
2023-04-26T21:54:18.031Z,5.87
2023-04-26T21:56:46.579Z,6.10
2023-04-26T21:59:15.390Z,5.60
2023-04-26T22:01:44.301Z,5.60
2023-04-26T22:04:13.031Z,5.33
2023-04-26T22:06:41.834Z,5.63
2023-04-26T22:09:12.049Z,5.43
2023-04-26T22:11:41.526Z,5.40
2023-04-26T22:14:10.157Z,6.00
2023-04-26T22:16:38.781Z,5.40
2023-04-26T22:19:07.374Z,5.77
2023-04-26T22:21:36.503Z,4.73
2023-04-26T22:24:05.593Z,5.40
2023-04-26T22:26:36.088Z,4.90
2023-04-26T22:29:04.727Z,4.80
2023-04-26T22:31:33.537Z,4.73
2023-04-26T22:34:02.191Z,4.50
2023-04-26T22:36:31.141Z,3.80
2023-04-26T22:39:00.051Z,3.40
2023-04-26T22:41:28.700Z,4.37
2023-04-26T22:43:58.710Z,3.40
2023-04-26T22:46:27.498Z,3.77
2023-04-26T22:48:56.185Z,3.90
2023-04-26T22:51:24.884Z,3.53
2023-04-26T22:53:53.518Z,3.10
2023-04-26T22:56:22.328Z,3.47
2023-04-26T22:58:50.999Z,3.63
2023-04-26T23:01:21.038Z,3.03
2023-04-26T23:03:49.754Z,2.67
2023-04-26T23:06:18.461Z,2.50
2023-04-26T23:08:47.112Z,2.27
2023-04-26T23:11:15.776Z,2.17
2023-04-26T23:13:44.337Z,1.97
2023-04-26T23:16:13.210Z,2.07
2023-04-26T23:18:43.786Z,2.00
2023-04-26T23:21:12.357Z,1.63
2023-04-26T23:23:42.724Z,1.50
2023-04-26T23:26:11.294Z,1.43
2023-04-26T23:28:39.940Z,2.20
2023-04-26T23:31:08.572Z,1.90
2023-04-26T23:33:37.168Z,1.30
2023-04-26T23:36:08.056Z,1.43
2023-04-26T23:38:36.622Z,1.53
2023-04-26T23:41:05.635Z,1.77
2023-04-26T23:43:34.269Z,1.73
2023-04-26T23:46:03.010Z,1.50
2023-04-26T23:48:31.681Z,1.70
2023-04-26T23:51:00.977Z,1.97
2023-04-26T23:53:31.205Z,2.17
2023-04-26T23:55:59.850Z,1.70
2023-04-26T23:58:28.498Z,1.40
